Terminal Aerodrome Forecast
Issued by NWS Cleveland, OH

Home | Current Version | Previous Version | Text Only | Print | Product List | Glossary Off
Versions: 1 2 3 4 5 6 7 8 9 10 11 12 13 14 15 16 17 18 19 20

000
FTUS41 KCLE 302300
TAFERI
TAF
KERI 302339Z 3100/3124 19012KT P6SM SCT050 BKN100
     FM310300 20012KT P6SM VCSH BKN050
     FM310600 21012KT 6SM -SHRA VCTS OVC035CB
     FM310900 21012KT 5SM -SHRA OVC020
     FM311400 21012KT 4SM BR OVC015
     FM311800 22010KT P6SM BKN025=

USA.gov is the U.S. government's official web portal to all federal, state and local government web resources and services.